Time;durP1;ratioP1;P1;durP2;ratioP2;P2;SDS_P1;SDS_P2;PMS_P1;PMS_P2;Temp;Humidity;BMP_temperature;BMP_pressure;BME280_temperature;BME280_humidity;BME280_pressure;Samples;Min_cycle;Max_cycle;Signal;HPM_P1;HPM_P2
2022/01/16 00:01:06;;;;;;;;;56.50;42.00;;;;;4.00;64.94;102380.78;5079167;28;46588;-73
2022/01/16 00:06:17;;;;;;;;;67.75;45.50;;;;;4.04;65.56;102373.19;5079109;28;45370;-75
2022/01/16 00:08:43;;;;;;;;;57.75;43.75;;;;;4.06;65.42;102363.75;5079425;28;45539;-73
2022/01/16 00:11:08;;;;;;;;;50.75;40.00;;;;;4.11;65.06;102361.44;5079338;28;46481;-74
2022/01/16 00:13:34;;;;;;;;;65.50;44.75;;;;;4.15;65.24;102368.63;5078851;28;45350;-75
2022/01/16 00:15:59;;;;;;;;;64.00;41.25;;;;;4.16;65.16;102388.75;5079044;28;45903;-73
2022/01/16 00:18:28;;;;;;;;;65.50;45.00;;;;;4.16;64.80;102402.72;5078439;28;53934;-74
2022/01/16 00:20:53;;;;;;;;;63.25;39.00;;;;;4.17;64.68;102387.94;5078852;28;47498;-74
2022/01/16 00:23:27;;;;;;;;;69.25;44.50;;;;;4.16;65.27;102391.38;5078111;28;62791;-74
2022/01/16 00:25:54;;;;;;;;;64.50;45.25;;;;;4.17;64.75;102396.69;5061768;28;45262;-74
2022/01/16 00:28:20;;;;;;;;;66.25;43.75;;;;;4.15;65.02;102403.50;5060457;28;45574;-70
2022/01/16 00:30:46;;;;;;;;;64.25;48.25;;;;;4.09;64.87;102404.84;5060670;28;46266;-74
2022/01/16 00:33:11;;;;;;;;;63.75;43.75;;;;;4.12;64.64;102420.72;5078868;28;45384;-71
2022/01/16 00:35:37;;;;;;;;;67.75;47.25;;;;;4.04;64.33;102425.47;5078454;28;45180;-74
2022/01/16 00:38:03;;;;;;;;;66.75;44.75;;;;;4.01;64.78;102416.53;5078793;28;45393;-74
2022/01/16 00:40:29;;;;;;;;;56.50;36.75;;;;;3.98;64.33;102396.34;5078489;28;45345;-74
2022/01/16 00:42:56;;;;;;;;;66.25;44.25;;;;;3.97;64.46;102362.28;5078096;28;45307;-74
2022/01/16 00:45:21;;;;;;;;;61.75;43.25;;;;;3.94;64.58;102373.41;5078211;28;45322;-74
2022/01/16 00:47:46;;;;;;;;;69.00;45.75;;;;;3.98;64.82;102384.97;5078194;28;56695;-75
2022/01/16 00:50:12;;;;;;;;;66.25;44.00;;;;;3.98;64.99;102385.88;5078114;28;56497;-73
2022/01/16 00:52:37;;;;;;;;;63.00;44.75;;;;;3.96;64.25;102392.72;5078297;28;51241;-73
2022/01/16 00:55:04;;;;;;;;;62.50;44.00;;;;;3.97;64.39;102399.75;5059752;28;53571;-73
2022/01/16 00:57:30;;;;;;;;;67.25;46.75;;;;;3.94;64.24;102404.78;5078753;28;45208;-71
2022/01/16 00:59:55;;;;;;;;;67.25;46.00;;;;;3.91;64.42;102386.31;5078554;28;45733;-75
2022/01/16 01:02:21;;;;;;;;;53.75;42.50;;;;;3.91;64.46;102442.09;5077353;28;56790;-74
2022/01/16 01:04:47;;;;;;;;;55.00;44.25;;;;;3.93;64.81;102450.91;5078503;28;45349;-74
2022/01/16 01:07:13;;;;;;;;;66.25;48.75;;;;;3.96;64.93;102450.22;5078772;28;45281;-73
2022/01/16 01:09:38;;;;;;;;;71.50;49.75;;;;;3.94;64.77;102441.38;5078546;28;46488;-73
2022/01/16 01:12:06;;;;;;;;;63.75;45.25;;;;;4.01;65.09;102445.28;5078307;28;45325;-75
2022/01/16 01:14:40;;;;;;;;;67.50;45.25;;;;;4.04;64.87;102474.22;5078298;28;45219;-73
2022/01/16 01:17:08;;;;;;;;;75.00;50.00;;;;;4.03;64.57;102420.16;5077922;28;45221;-73
2022/01/16 01:19:35;;;;;;;;;66.75;46.00;;;;;4.05;64.96;102439.44;5059818;28;47676;-73
2022/01/16 01:22:01;;;;;;;;;55.00;43.00;;;;;4.06;64.72;102413.41;5077572;28;45452;-73
2022/01/16 01:24:27;;;;;;;;;62.75;43.50;;;;;4.06;65.22;102373.31;5078242;28;45264;-74
2022/01/16 01:29:33;;;;;;;;;57.00;42.25;;;;;4.05;64.56;102358.41;5077240;28;45722;-73
2022/01/16 01:31:58;;;;;;;;;71.00;45.00;;;;;4.03;65.08;102347.88;5077671;28;45230;-74
2022/01/16 01:34:24;;;;;;;;;71.75;46.25;;;;;4.01;64.94;102361.66;5078102;28;45429;-75
2022/01/16 01:36:50;;;;;;;;;63.75;45.00;;;;;3.98;65.53;102380.66;5077882;28;45441;-74
2022/01/16 01:39:16;;;;;;;;;69.00;39.25;;;;;3.97;65.30;102394.53;5077938;28;45695;-74
2022/01/16 01:41:42;;;;;;;;;69.00;43.25;;;;;3.98;65.36;102411.09;5077753;28;45363;-74
2022/01/16 01:52:19;;;;;;;;;70.25;45.00;;;;;3.96;65.75;102447.63;5034561;28;45459;-73
2022/01/16 01:54:46;;;;;;;;;49.25;43.25;;;;;3.97;66.08;102459.88;5077417;28;48193;-72
2022/01/16 01:57:11;;;;;;;;;62.50;42.25;;;;;3.97;66.05;102448.50;5077762;28;45338;-72
2022/01/16 01:59:39;;;;;;;;;58.75;44.00;;;;;4.02;65.86;102454.94;5042518;28;45619;-72
2022/01/16 02:02:05;;;;;;;;;71.25;38.00;;;;;4.01;65.64;102460.97;5059764;28;45374;-72
2022/01/16 02:04:31;;;;;;;;;64.50;39.50;;;;;4.06;66.07;102488.31;5077563;28;45318;-72
2022/01/16 02:06:57;;;;;;;;;63.75;42.25;;;;;4.02;66.05;102475.84;5076750;28;56866;-73
2022/01/16 02:09:22;;;;;;;;;54.50;41.50;;;;;4.02;66.28;102492.44;5042521;28;45320;-72
2022/01/16 02:11:47;;;;;;;;;59.75;44.50;;;;;4.02;66.36;102492.44;5058643;28;45488;-72
2022/01/16 02:14:25;;;;;;;;;61.50;42.50;;;;;4.05;66.43;102497.88;5059506;28;45523;-73
2022/01/16 02:35:50;;;;;;;;;50.25;35.00;;;;;4.25;66.62;102475.56;5059993;28;45506;-72
2022/01/16 02:38:15;;;;;;;;;58.00;41.75;;;;;4.25;66.47;102464.22;5077462;28;45303;-72
2022/01/16 02:40:56;;;;;;;;;64.50;39.50;;;;;4.25;66.44;102464.22;5076345;28;46296;-73
2022/01/16 02:43:29;;;;;;;;;66.50;48.25;;;;;4.26;66.35;102459.09;5068371;28;45380;-72
2022/01/16 02:46:35;;;;;;;;;59.25;45.25;;;;;4.29;66.53;102453.16;5070191;28;45213;-72
2022/01/16 02:48:43;;;;;;;;;66.25;44.50;;;;;4.32;66.63;102453.34;5068980;28;45441;-74
2022/01/16 02:51:09;;;;;;;;;59.75;42.25;;;;;4.33;66.84;102442.97;5076621;28;46590;-73
2022/01/16 02:53:34;;;;;;;;;62.25;44.75;;;;;4.36;66.88;102439.63;5076940;28;45468;-73
2022/01/16 02:56:00;;;;;;;;;63.75;40.25;;;;;4.39;66.80;102439.84;5076604;28;47344;-74
2022/01/16 02:58:26;;;;;;;;;60.50;37.00;;;;;4.41;66.73;102443.44;5076848;28;45628;-72
2022/01/16 03:00:51;;;;;;;;;59.25;42.75;;;;;4.39;66.46;102438.13;5058468;28;45575;-73
2022/01/16 03:03:16;;;;;;;;;56.25;42.50;;;;;4.43;66.81;102428.78;5075794;28;62542;-73
2022/01/16 03:05:42;;;;;;;;;58.75;42.25;;;;;4.45;66.51;102435.88;5076092;28;56338;-72
2022/01/16 03:08:07;;;;;;;;;68.50;43.00;;;;;4.41;66.16;102428.66;5079272;28;45639;-74
2022/01/16 03:10:54;;;;;;;;;63.75;44.50;;;;;4.49;66.40;102430.84;5080339;28;46523;-73
2022/01/16 03:13:20;;;;;;;;;66.50;46.50;;;;;4.51;66.39;102431.84;5079783;28;45195;-73
2022/01/16 03:15:46;;;;;;;;;67.25;44.00;;;;;4.52;66.37;102434.53;5080006;28;45348;-73
2022/01/16 03:23:22;;;;;;;;;64.25;45.00;;;;;4.61;66.28;102424.66;5079458;28;45271;-74
2022/01/16 03:25:49;;;;;;;;;64.75;46.00;;;;;4.63;66.20;102428.25;5079621;28;45583;-72
2022/01/16 03:28:15;;;;;;;;;71.75;49.50;;;;;4.64;66.12;102431.78;5079505;28;45475;-72
2022/01/16 03:30:41;;;;;;;;;66.75;49.00;;;;;4.66;66.42;102412.75;5061215;28;45816;-73
2022/01/16 03:33:06;;;;;;;;;67.50;45.00;;;;;4.68;66.23;102439.00;5061457;28;45380;-72
2022/01/16 03:35:32;;;;;;;;;76.50;47.75;;;;;4.65;66.38;102423.13;5079403;28;45295;-71
2022/01/16 03:37:57;;;;;;;;;74.00;49.00;;;;;4.72;66.26;102436.66;5079541;28;45539;-72
2022/01/16 03:40:24;;;;;;;;;64.00;44.75;;;;;4.76;66.00;102432.53;5079151;28;61398;-74
2022/01/16 03:42:50;;;;;;;;;68.50;49.00;;;;;4.78;66.33;102422.13;5079486;28;45247;-72
2022/01/16 03:45:15;;;;;;;;;67.50;47.75;;;;;4.78;66.23;102414.28;5080047;28;45250;-72
2022/01/16 03:47:40;;;;;;;;;64.50;44.75;;;;;4.72;66.09;102413.09;5079805;28;45608;-74
2022/01/16 03:50:06;;;;;;;;;64.25;44.75;;;;;4.76;66.18;102427.28;5061107;28;60874;-73
2022/01/16 03:52:32;;;;;;;;;68.25;45.00;;;;;4.79;65.93;102437.91;5078968;28;45276;-74
2022/01/16 03:54:57;;;;;;;;;68.75;47.00;;;;;4.80;66.28;102431.00;5079095;28;56054;-72
2022/01/16 03:57:23;;;;;;;;;70.50;49.00;;;;;4.80;66.05;102431.00;5079340;28;45294;-71
2022/01/16 03:59:48;;;;;;;;;62.75;42.75;;;;;4.80;65.79;102442.38;5078508;28;58782;-72
2022/01/16 04:02:13;;;;;;;;;60.00;44.25;;;;;4.78;66.26;102436.13;5078680;28;57381;-74
2022/01/16 04:04:39;;;;;;;;;63.50;41.75;;;;;4.80;66.21;102441.47;5079496;28;45906;-72
2022/01/16 04:07:05;;;;;;;;;63.50;44.75;;;;;4.81;65.87;102454.63;5078937;28;51229;-74
2022/01/16 04:09:30;;;;;;;;;68.00;44.25;;;;;4.76;65.85;102448.22;5078433;28;47504;-74
2022/01/16 04:11:57;;;;;;;;;59.00;43.50;;;;;4.76;66.07;102442.09;5061047;28;45562;-72
2022/01/16 04:17:20;;;;;;;;;62.75;44.50;;;;;4.77;66.30;102460.50;5027860;28;45359;-74
2022/01/16 04:19:45;;;;;;;;;66.25;43.50;;;;;4.78;66.02;102474.47;5077251;28;45703;-72
2022/01/16 04:22:11;;;;;;;;;57.75;43.00;;;;;4.71;65.67;102481.06;5078990;28;45500;-73
2022/01/16 04:24:37;;;;;;;;;67.00;45.00;;;;;4.68;65.87;102491.31;5060821;28;45261;-74
2022/01/16 04:27:02;;;;;;;;;65.50;43.50;;;;;4.67;66.23;102489.50;5078960;28;45350;-72
2022/01/16 04:29:28;;;;;;;;;70.25;46.00;;;;;4.65;66.46;102499.91;5078421;28;47436;-72
2022/01/16 04:31:53;;;;;;;;;63.75;44.25;;;;;4.65;66.22;102502.50;5078450;28;45301;-72
2022/01/16 04:34:18;;;;;;;;;60.50;45.25;;;;;4.65;65.96;102502.50;5077819;28;58663;-72
2022/01/16 04:36:44;;;;;;;;;66.25;43.75;;;;;4.64;66.34;102503.34;5077905;28;53886;-73
2022/01/16 04:39:15;;;;;;;;;63.25;43.75;;;;;4.59;66.41;102493.41;5078144;28;64785;-72
2022/01/16 04:44:26;;;;;;;;;60.25;35.25;;;;;4.56;66.08;102498.41;5063334;28;45316;-72
2022/01/16 04:46:51;;;;;;;;;51.50;37.25;;;;;4.48;66.24;102492.72;5078328;28;45587;-71
2022/01/16 04:49:17;;;;;;;;;53.75;40.00;;;;;4.55;66.38;102496.63;5078301;28;47131;-72
2022/01/16 04:51:42;;;;;;;;;54.00;43.50;;;;;4.55;66.13;102513.22;5078439;28;45260;-73
2022/01/16 04:54:08;;;;;;;;;61.25;42.00;;;;;4.52;65.91;102502.53;5078099;28;49790;-72
2022/01/16 04:56:34;;;;;;;;;67.00;42.25;;;;;4.52;66.52;102514.72;5078679;28;45414;-71
2022/01/16 04:58:59;;;;;;;;;65.00;44.75;;;;;4.48;66.46;102511.03;5078409;28;46740;-72
2022/01/16 05:01:24;;;;;;;;;64.00;42.00;;;;;4.41;66.46;102509.72;5078019;28;45562;-72
2022/01/16 05:03:50;;;;;;;;;50.25;36.75;;;;;4.41;66.57;102508.81;5059755;28;45842;-74
2022/01/16 05:06:15;;;;;;;;;62.00;36.75;;;;;4.41;67.02;102509.72;5078673;28;45354;-74
2022/01/16 05:08:41;;;;;;;;;58.00;40.50;;;;;4.42;66.44;102505.38;5078254;28;46276;-72
2022/01/16 05:11:08;;;;;;;;;52.75;35.25;;;;;4.39;66.68;102520.91;5077628;28;56775;-73
2022/01/16 05:18:43;;;;;;;;;50.00;31.25;;;;;4.26;66.67;102520.94;5078070;28;45677;-72
2022/01/16 05:21:08;;;;;;;;;36.75;24.00;;;;;4.24;66.87;102525.16;5077930;28;45413;-72
2022/01/16 05:23:34;;;;;;;;;41.75;32.75;;;;;4.21;67.20;102520.66;5078026;28;45435;-72
2022/01/16 05:26:00;;;;;;;;;50.50;33.25;;;;;4.18;66.89;102520.44;5077916;28;45537;-73
2022/01/16 05:28:26;;;;;;;;;32.25;24.50;;;;;4.23;67.39;102534.72;5059747;28;46326;-71
2022/01/16 05:30:51;;;;;;;;;42.75;25.25;;;;;4.26;67.13;102529.69;5076964;28;45307;-73
2022/01/16 05:33:16;;;;;;;;;42.50;36.00;;;;;4.27;67.08;102543.69;5077564;28;52623;-72
2022/01/16 05:35:42;;;;;;;;;44.50;29.25;;;;;4.22;67.15;102530.31;5077461;28;51713;-72
2022/01/16 05:38:08;;;;;;;;;42.75;26.75;;;;;4.32;67.29;102529.19;5077928;28;46473;-72
2022/01/16 05:40:33;;;;;;;;;50.00;30.50;;;;;4.30;66.92;102521.22;5077792;28;45280;-72
2022/01/16 05:42:59;;;;;;;;;47.50;27.25;;;;;4.33;67.11;102541.44;5077355;28;56253;-72
2022/01/16 05:45:24;;;;;;;;;38.00;27.00;;;;;4.31;67.36;102554.41;5075725;28;52073;-73
2022/01/16 05:47:50;;;;;;;;;41.50;28.50;;;;;4.29;67.23;102563.88;5060578;28;45946;-73
2022/01/16 05:50:15;;;;;;;;;44.50;25.50;;;;;4.28;67.24;102558.56;5072265;28;58688;-73
2022/01/16 05:52:41;;;;;;;;;45.25;25.25;;;;;4.27;67.13;102543.69;5077208;28;52748;-73
2022/01/16 05:55:07;;;;;;;;;33.75;24.00;;;;;4.19;67.06;102523.16;5059793;28;45548;-74
2022/01/16 05:57:32;;;;;;;;;40.75;27.25;;;;;4.25;67.63;102532.19;5076996;28;47265;-71
2022/01/16 05:59:58;;;;;;;;;40.00;30.75;;;;;4.25;67.53;102525.25;5077052;28;60538;-71
2022/01/16 06:02:24;;;;;;;;;50.75;29.75;;;;;4.27;67.33;102514.91;5077577;28;45284;-73
2022/01/16 06:04:50;;;;;;;;;56.75;32.75;;;;;4.34;67.80;102551.09;5077775;28;45197;-73
2022/01/16 06:07:15;;;;;;;;;46.00;32.50;;;;;4.34;67.42;102548.47;5076566;28;62343;-71
2022/01/16 06:09:40;;;;;;;;;45.25;32.00;;;;;4.35;67.51;102559.03;5077017;28;54352;-71
2022/01/16 06:12:06;;;;;;;;;47.75;34.50;;;;;4.34;67.73;102552.00;5077179;28;53992;-73
2022/01/16 06:14:32;;;;;;;;;39.25;21.75;;;;;4.38;67.65;102564.47;5077040;28;45282;-73
2022/01/16 06:16:57;;;;;;;;;36.00;20.00;;;;;4.36;67.75;102565.16;5076561;28;65891;-72
2022/01/16 06:19:23;;;;;;;;;35.00;26.25;;;;;4.40;67.62;102585.47;5076589;28;60535;-72
2022/01/16 06:21:48;;;;;;;;;40.50;30.75;;;;;4.38;67.49;102574.94;5077491;28;45232;-72
2022/01/16 06:24:14;;;;;;;;;42.75;24.50;;;;;4.35;67.73;102576.44;5077233;28;45277;-72
2022/01/16 06:26:39;;;;;;;;;31.00;23.25;;;;;4.31;67.43;102585.78;5058426;28;45593;-72
2022/01/16 06:29:04;;;;;;;;;46.50;24.75;;;;;4.31;67.54;102563.97;5076195;28;61479;-72
2022/01/16 06:31:31;;;;;;;;;29.75;21.00;;;;;4.39;67.97;102570.59;5058547;28;52592;-73
2022/01/16 06:33:59;;;;;;;;;35.50;25.75;;;;;4.41;67.65;102564.63;5077514;28;45281;-72
2022/01/16 06:36:24;;;;;;;;;36.50;24.00;;;;;4.42;67.64;102565.53;5076923;28;45702;-72
2022/01/16 06:38:50;;;;;;;;;42.25;25.00;;;;;4.46;67.85;102575.41;5077365;28;45200;-73
2022/01/16 06:41:16;;;;;;;;;42.50;26.00;;;;;4.52;67.83;102580.13;5076272;28;45481;-71
2022/01/16 06:43:41;;;;;;;;;33.75;25.00;;;;;4.53;67.49;102572.38;5080167;28;50747;-74
2022/01/16 06:46:06;;;;;;;;;34.50;25.00;;;;;4.56;67.57;102553.34;5080119;28;52254;-72
2022/01/16 06:48:32;;;;;;;;;35.50;21.00;;;;;4.54;67.93;102561.13;5079802;28;54433;-73
2022/01/16 06:50:57;;;;;;;;;34.25;27.25;;;;;4.59;67.98;102580.63;5079345;28;45594;-72
2022/01/16 06:53:23;;;;;;;;;38.75;25.25;;;;;4.61;67.85;102581.59;5080166;28;56691;-72
2022/01/16 06:55:48;;;;;;;;;37.50;22.00;;;;;4.64;67.98;102584.44;5079750;28;54825;-73
2022/01/16 06:58:13;;;;;;;;;42.50;28.25;;;;;4.66;67.89;102606.34;5068100;28;45385;-72
2022/01/16 07:00:39;;;;;;;;;35.50;23.25;;;;;4.67;67.85;102623.84;5079862;28;58488;-72
2022/01/16 07:03:04;;;;;;;;;33.75;24.00;;;;;4.69;67.78;102626.59;5061665;28;54155;-74
2022/01/16 07:05:29;;;;;;;;;39.00;30.75;;;;;4.71;67.86;102617.13;5079823;28;50995;-72
2022/01/16 07:07:55;;;;;;;;;27.25;24.00;;;;;4.75;67.79;102613.88;5079789;28;50295;-73
2022/01/16 07:10:20;;;;;;;;;45.25;27.75;;;;;4.77;67.99;102614.88;5080371;28;45999;-72
2022/01/16 07:12:46;;;;;;;;;41.50;25.50;;;;;4.80;67.73;102622.94;5079662;28;53830;-72
2022/01/16 07:15:11;;;;;;;;;39.00;25.75;;;;;4.84;67.75;102616.16;5079525;28;58889;-73
2022/01/16 07:17:37;;;;;;;;;35.50;24.75;;;;;4.87;67.75;102603.28;5079746;28;45345;-72
2022/01/16 07:20:02;;;;;;;;;27.00;24.25;;;;;4.87;67.66;102598.94;5079618;28;53445;-72
2022/01/16 07:22:28;;;;;;;;;39.75;23.00;;;;;4.90;67.99;102614.84;5061196;28;45559;-72
2022/01/16 07:24:53;;;;;;;;;34.50;25.50;;;;;4.91;67.83;102621.91;5079517;28;54333;-72
2022/01/16 07:27:19;;;;;;;;;38.75;25.50;;;;;4.91;67.75;102623.59;5079437;28;45234;-73
2022/01/16 07:29:44;;;;;;;;;24.00;15.25;;;;;4.95;67.76;102659.59;5079380;28;45302;-75
2022/01/16 07:32:09;;;;;;;;;35.00;27.00;;;;;4.98;67.46;102641.50;5079747;28;53916;-73
2022/01/16 07:34:35;;;;;;;;;37.00;22.75;;;;;5.01;67.74;102641.69;5078900;28;64924;-73
2022/01/16 07:37:00;;;;;;;;;22.25;18.25;;;;;5.02;67.48;102647.84;5079406;28;59808;-73
2022/01/16 07:39:26;;;;;;;;;29.50;18.00;;;;;5.00;67.73;102647.72;5075322;28;56026;-74
2022/01/16 07:41:51;;;;;;;;;38.00;22.25;;;;;5.00;67.43;102643.38;5078520;28;45596;-75
2022/01/16 07:44:17;;;;;;;;;26.50;21.25;;;;;5.07;67.63;102649.03;5076924;28;64135;-73
2022/01/16 07:46:42;;;;;;;;;30.75;22.25;;;;;5.05;67.63;102646.28;5074718;28;60832;-72
2022/01/16 07:49:07;;;;;;;;;28.75;21.75;;;;;5.11;67.84;102641.44;5078317;28;45461;-74
2022/01/16 07:51:33;;;;;;;;;39.50;24.25;;;;;5.12;67.27;102640.66;5060207;28;51860;-73
2022/01/16 07:53:59;;;;;;;;;36.75;27.00;;;;;5.10;67.75;102633.50;5077766;28;46448;-73
2022/01/16 07:56:24;;;;;;;;;32.50;20.50;;;;;5.15;67.50;102651.28;5078364;28;45330;-75
2022/01/16 07:58:50;;;;;;;;;30.00;22.75;;;;;5.15;67.36;102639.91;5078023;28;54317;-73
2022/01/16 08:01:15;;;;;;;;;36.00;23.75;;;;;5.16;67.38;102631.25;5079209;28;45560;-75
2022/01/16 08:03:40;;;;;;;;;29.75;23.00;;;;;5.18;67.54;102620.06;5078590;28;60532;-75
2022/01/16 08:06:06;;;;;;;;;38.00;20.50;;;;;5.22;67.60;102619.47;5079194;28;45325;-74
2022/01/16 08:08:31;;;;;;;;;37.00;23.00;;;;;5.20;67.28;102626.31;5079447;28;45299;-75
2022/01/16 08:10:57;;;;;;;;;28.00;21.50;;;;;5.29;67.36;102635.53;5060519;28;56340;-75
2022/01/16 08:13:22;;;;;;;;;29.00;20.00;;;;;5.32;67.44;102631.38;5078062;28;59565;-74
2022/01/16 08:15:47;;;;;;;;;33.75;21.50;;;;;5.35;67.31;102634.19;5079172;28;45311;-72
2022/01/16 08:18:13;;;;;;;;;26.00;19.00;;;;;5.39;67.45;102633.59;5079340;28;45728;-73
2022/01/16 08:20:38;;;;;;;;;23.75;14.75;;;;;5.41;67.07;102642.44;5078703;28;50209;-75
2022/01/16 08:23:04;;;;;;;;;34.25;23.25;;;;;5.44;67.27;102645.25;5078966;28;51798;-73
2022/01/16 08:25:29;;;;;;;;;30.25;19.75;;;;;5.42;67.07;102639.00;5078384;28;45363;-73
2022/01/16 08:27:55;;;;;;;;;30.25;20.00;;;;;5.48;67.24;102646.31;5076815;28;45305;-72
2022/01/16 08:30:23;;;;;;;;;28.75;20.00;;;;;5.52;67.17;102643.06;5078331;28;45376;-73
2022/01/16 08:32:49;;;;;;;;;28.25;21.50;;;;;5.51;67.35;102646.50;5075049;28;46581;-73
2022/01/16 08:35:14;;;;;;;;;33.75;20.50;;;;;5.51;67.35;102636.03;5075233;28;51272;-74
2022/01/16 08:37:39;;;;;;;;;31.25;23.25;;;;;5.54;67.26;102631.00;5075605;28;55476;-76
2022/01/16 08:40:05;;;;;;;;;27.00;21.75;;;;;5.55;67.07;102627.56;5078800;28;45273;-73
2022/01/16 08:42:30;;;;;;;;;27.75;19.25;;;;;5.62;67.40;102634.97;5077194;28;46393;-72
2022/01/16 08:44:56;;;;;;;;;32.00;24.75;;;;;5.68;67.23;102645.81;5072646;28;55530;-73
2022/01/16 08:47:21;;;;;;;;;31.25;20.00;;;;;5.70;67.02;102654.69;5078564;28;45617;-73
2022/01/16 08:49:47;;;;;;;;;26.50;18.75;;;;;5.75;67.12;102648.00;5078383;28;45610;-72
2022/01/16 08:52:13;;;;;;;;;27.00;18.00;;;;;5.81;66.99;102651.81;5059667;28;63431;-73
2022/01/16 08:54:38;;;;;;;;;26.50;19.75;;;;;5.83;66.99;102661.56;5077305;28;45471;-74
2022/01/16 08:57:04;;;;;;;;;29.75;18.25;;;;;5.83;66.82;102666.78;5059753;28;45650;-74
2022/01/16 08:59:29;;;;;;;;;24.00;16.00;;;;;5.82;66.74;102675.47;5075788;28;45413;-73
2022/01/16 09:01:55;;;;;;;;;26.50;21.25;;;;;5.83;66.96;102686.88;5074633;28;65328;-73
2022/01/16 09:04:20;;;;;;;;;28.50;18.75;;;;;5.82;66.95;102685.97;5073081;28;45423;-76
2022/01/16 09:06:46;;;;;;;;;36.00;19.25;;;;;5.78;66.95;102668.22;5073334;28;45851;-73
2022/01/16 09:09:11;;;;;;;;;22.50;19.75;;;;;5.85;66.82;102682.59;5073240;28;45539;-73
2022/01/16 09:11:37;;;;;;;;;28.00;23.75;;;;;5.84;66.55;102670.31;5076451;28;55225;-73
2022/01/16 09:14:02;;;;;;;;;26.25;19.75;;;;;5.87;67.12;102675.75;5073875;28;45453;-74
2022/01/16 09:16:27;;;;;;;;;28.00;22.00;;;;;5.88;66.96;102673.22;5074158;28;50673;-74
2022/01/16 09:18:53;;;;;;;;;42.75;25.00;;;;;5.88;66.74;102682.81;5074714;28;45402;-73
2022/01/16 09:21:18;;;;;;;;;18.00;15.00;;;;;5.84;66.73;102683.41;5073418;27;60586;-73
2022/01/16 09:23:44;;;;;;;;;27.75;20.25;;;;;5.79;66.84;102691.91;5202596;22;45448;-73
2022/01/16 09:26:10;;;;;;;;;24.75;20.75;;;;;5.76;66.97;102690.84;5098659;27;45495;-72
2022/01/16 09:28:35;;;;;;;;;27.25;20.25;;;;;5.82;67.10;102692.91;5089638;27;46558;-73
2022/01/16 09:31:01;;;;;;;;;22.00;18.25;;;;;5.89;66.88;102695.09;5090000;27;52718;-74
2022/01/16 09:33:26;;;;;;;;;25.50;16.75;;;;;5.96;66.89;102694.66;5092944;27;63674;-74
2022/01/16 09:35:51;;;;;;;;;30.00;18.75;;;;;5.97;66.74;102694.78;5097398;27;56661;-73
2022/01/16 09:38:18;;;;;;;;;25.75;15.75;;;;;5.94;66.47;102701.53;5097054;27;49633;-73
2022/01/16 09:40:44;;;;;;;;;26.00;20.00;;;;;5.93;66.49;102700.66;5097646;27;47295;-74
2022/01/16 09:43:10;;;;;;;;;30.50;19.25;;;;;5.91;66.95;102704.91;5097798;27;45217;-73
2022/01/16 09:45:35;;;;;;;;;21.50;19.00;;;;;5.92;66.83;102705.81;5091147;27;58857;-72
2022/01/16 09:48:01;;;;;;;;;23.25;18.75;;;;;5.99;67.02;102695.75;5092891;27;46026;-72
2022/01/16 09:50:27;;;;;;;;;25.25;18.00;;;;;6.14;66.39;102702.75;5093755;27;46322;-71
2022/01/16 09:52:52;;;;;;;;;23.50;16.50;;;;;6.21;66.54;102695.31;5097410;27;45403;-72
2022/01/16 09:55:18;;;;;;;;;19.50;17.50;;;;;6.37;66.59;102707.59;5095745;27;45552;-72
2022/01/16 09:57:43;;;;;;;;;28.50;21.75;;;;;6.50;66.46;102712.75;5078813;27;45420;-72
2022/01/16 10:00:12;;;;;;;;;22.50;17.75;;;;;6.59;65.74;102711.47;5096118;27;47586;-72
2022/01/16 10:02:37;;;;;;;;;22.50;17.00;;;;;6.60;65.94;102708.91;5087937;27;45500;-72
2022/01/16 10:05:07;;;;;;;;;22.00;19.25;;;;;6.69;65.75;102706.81;5091827;27;54207;-72
2022/01/16 10:07:33;;;;;;;;;25.25;18.50;;;;;6.67;65.59;102705.84;5079634;27;45526;-72
2022/01/16 10:10:09;;;;;;;;;25.25;17.75;;;;;6.67;65.26;102704.94;5072286;27;63536;-71
2022/01/16 10:12:35;;;;;;;;;27.50;18.75;;;;;6.60;65.36;102708.00;5094659;27;45460;-72
2022/01/16 10:15:21;;;;;;;;;30.25;19.25;;;;;6.46;65.64;102700.28;5091045;27;45362;-72
2022/01/16 10:17:48;;;;;;;;;23.25;18.25;;;;;6.45;65.79;102693.22;5096177;27;45306;-71
2022/01/16 10:20:16;;;;;;;;;26.50;18.50;;;;;6.36;65.49;102694.41;5096438;27;46975;-71
2022/01/16 10:22:48;;;;;;;;;30.75;19.00;;;;;6.37;65.73;102709.31;5092202;27;45338;-71
2022/01/16 10:25:14;;;;;;;;;22.75;18.75;;;;;6.34;65.88;102707.44;5095246;27;45504;-71
2022/01/16 10:27:41;;;;;;;;;24.25;16.50;;;;;6.37;65.99;102706.69;5100168;27;45410;-70
2022/01/16 10:30:08;;;;;;;;;20.75;15.75;;;;;6.35;65.64;102701.38;5095521;27;46418;-72
2022/01/16 10:32:38;;;;;;;;;20.75;14.50;;;;;6.38;66.18;102695.38;5096850;27;45546;-72
2022/01/16 10:35:19;;;;;;;;;22.50;21.00;;;;;6.40;65.96;102704.25;5096619;27;45352;-73
2022/01/16 10:37:50;;;;;;;;;18.00;13.00;;;;;6.34;66.06;102699.56;5096029;27;45280;-72
2022/01/16 10:40:16;;;;;;;;;20.75;18.75;;;;;6.40;66.01;102723.53;5092923;27;47466;-73
2022/01/16 10:42:47;;;;;;;;;19.75;16.50;;;;;6.41;65.49;102711.31;5095472;27;45301;-72
2022/01/16 10:45:14;;;;;;;;;20.50;14.50;;;;;6.39;66.03;102707.69;5094737;27;45297;-72
2022/01/16 10:47:54;;;;;;;;;19.75;19.50;;;;;6.46;65.93;102707.25;5084081;27;46293;-72
2022/01/16 10:50:32;;;;;;;;;25.50;19.00;;;;;6.48;66.00;102695.09;5084651;27;46698;-72
2022/01/16 10:52:58;;;;;;;;;23.25;18.00;;;;;6.53;66.32;102688.41;5083876;27;45307;-72
2022/01/16 10:55:32;;;;;;;;;22.00;18.00;;;;;6.54;65.75;102692.81;5097650;27;45283;-72
2022/01/16 10:58:21;;;;;;;;;21.25;16.75;;;;;6.59;65.76;102707.09;5097580;27;45219;-72
2022/01/16 11:00:56;;;;;;;;;22.25;17.00;;;;;6.63;65.87;102698.59;5095973;27;46142;-73
2022/01/16 11:03:22;;;;;;;;;23.25;15.25;;;;;6.67;65.80;102704.94;5089848;27;45568;-72
2022/01/16 11:05:49;;;;;;;;;23.50;16.25;;;;;6.73;65.71;102705.28;5096766;27;45232;-73
2022/01/16 11:08:19;;;;;;;;;21.25;16.25;;;;;6.67;65.60;102691.81;5097502;27;45552;-72
2022/01/16 11:10:46;;;;;;;;;23.50;18.00;;;;;6.71;65.96;102691.16;5096994;27;46625;-72
2022/01/16 11:13:16;;;;;;;;;19.75;16.25;;;;;6.79;65.88;102709.16;5096737;27;45558;-72
2022/01/16 11:15:46;;;;;;;;;23.50;16.25;;;;;6.85;65.44;102707.69;5097355;27;45214;-72
2022/01/16 11:18:11;;;;;;;;;15.00;15.00;;;;;6.87;65.25;102706.97;5097261;27;45347;-73
2022/01/16 11:20:40;;;;;;;;;24.25;16.00;;;;;6.89;65.56;102702.69;5096861;27;47373;-73
2022/01/16 11:23:16;;;;;;;;;18.75;15.00;;;;;6.90;65.72;102703.59;5096860;27;45204;-73
2022/01/16 11:25:43;;;;;;;;;20.00;16.25;;;;;6.95;65.34;102713.53;5097174;27;45348;-72
2022/01/16 11:28:16;;;;;;;;;22.75;18.00;;;;;7.03;65.67;102699.13;5097100;27;45200;-73
2022/01/16 11:30:47;;;;;;;;;24.00;19.00;;;;;7.27;65.28;102715.31;5079651;28;47162;-73
2022/01/16 11:33:14;;;;;;;;;18.50;15.75;;;;;7.33;65.20;102707.75;5080109;27;45469;-72
2022/01/16 11:35:44;;;;;;;;;20.50;18.75;;;;;7.38;64.97;102705.38;5087513;27;45286;-73
2022/01/16 11:38:09;;;;;;;;;19.75;15.25;;;;;7.51;64.48;102709.56;5099197;27;45238;-73
2022/01/16 11:40:44;;;;;;;;;24.00;18.75;;;;;7.58;64.71;102707.38;5098685;27;45598;-73
2022/01/16 11:43:45;;;;;;;;;23.50;20.25;;;;;7.69;64.78;102707.03;5098498;27;45182;-73
2022/01/16 11:46:21;;;;;;;;;24.50;19.00;;;;;7.66;64.31;102705.13;5056213;27;45560;-72
2022/01/16 11:49:02;;;;;;;;;21.75;15.00;;;;;7.62;64.23;102705.81;5100597;27;45175;-72
2022/01/16 11:51:36;;;;;;;;;24.00;23.00;;;;;7.54;64.20;102705.38;5082047;27;46488;-72
2022/01/16 11:54:04;;;;;;;;;19.25;18.75;;;;;7.47;63.92;102695.38;5079459;27;45293;-73
2022/01/16 11:56:39;;;;;;;;;23.75;19.50;;;;;7.41;64.50;102684.53;5088240;27;45251;-72
2022/01/16 11:59:28;;;;;;;;;28.75;18.75;;;;;7.39;64.71;102683.53;5097130;27;45226;-72
2022/01/16 12:01:56;;;;;;;;;22.25;19.00;;;;;7.42;64.86;102682.81;5090417;27;46457;-73
2022/01/16 12:04:28;;;;;;;;;27.50;23.00;;;;;7.45;64.40;102683.84;5094912;27;45319;-73